Time;durP1;ratioP1;P1;durP2;ratioP2;P2;SDS_P1;SDS_P2;PMS_P1;PMS_P2;Temp;Humidity;BMP_temperature;BMP_pressure;BME280_temperature;BME280_humidity;BME280_pressure;Samples;Min_cycle;Max_cycle;Signal;HPM_P1;HPM_P2
2023/07/06 00:02:25;;;;;;;4.90;2.38;;;;;;;;;;5057151;28;20021;-22
2023/07/06 00:04:52;;;;;;;2.85;1.70;;;;;;;;;;5056779;28;20079;-22
2023/07/06 00:07:21;;;;;;;5.97;2.35;;;;;;;;;;5057135;28;20535;-23
2023/07/06 00:09:50;;;;;;;5.70;2.35;;;;;;;;;;5057343;28;20033;-22
2023/07/06 00:12:16;;;;;;;7.88;2.20;;;;;;;;;;5057225;28;20474;-24
2023/07/06 00:14:42;;;;;;;5.85;2.00;;;;;;;;;;5057001;28;20029;-23
2023/07/06 00:17:12;;;;;;;4.53;1.98;;;;;;;;;;5056888;28;20040;-21
2023/07/06 00:19:39;;;;;;;3.75;2.10;;;;;;;;;;5057138;28;20028;-23
2023/07/06 00:22:07;;;;;;;4.10;1.70;;;;;;;;;;5056753;28;20021;-23
2023/07/06 00:24:33;;;;;;;9.55;2.95;;;;;;;;;;5057037;28;20099;-21
2023/07/06 00:26:59;;;;;;;3.60;1.77;;;;;;;;;;5039221;28;20112;-21
2023/07/06 00:29:33;;;;;;;2.97;1.88;;;;;;;;;;5056965;28;20032;-21
2023/07/06 00:32:15;;;;;;;3.85;1.85;;;;;;;;;;5056591;28;20037;-29
2023/07/06 00:34:41;;;;;;;5.38;2.20;;;;;;;;;;5056906;28;20025;-21
2023/07/06 00:37:07;;;;;;;4.07;1.88;;;;;;;;;;5056765;28;20028;-23
2023/07/06 00:39:33;;;;;;;4.68;1.98;;;;;;;;;;5056498;28;20025;-23
2023/07/06 00:41:59;;;;;;;2.70;2.03;;;;;;;;;;5056376;28;20395;-23
2023/07/06 00:44:44;;;;;;;8.43;2.40;;;;;;;;;;5057211;28;20059;-22
2023/07/06 00:47:12;;;;;;;6.40;1.88;;;;;;;;;;5056621;28;20035;-21
2023/07/06 00:49:39;;;;;;;3.15;2.10;;;;;;;;;;5056338;28;20064;-23
2023/07/06 00:52:05;;;;;;;2.28;1.50;;;;;;;;;;5056156;28;20040;-23
2023/07/06 00:54:33;;;;;;;5.72;1.83;;;;;;;;;;5056744;28;20044;-21
2023/07/06 00:57:02;;;;;;;8.32;1.95;;;;;;;;;;5056084;28;20116;-23
2023/07/06 00:59:29;;;;;;;4.80;1.90;;;;;;;;;;5056164;28;20035;-23
2023/07/06 01:02:00;;;;;;;4.05;2.10;;;;;;;;;;5056253;28;20025;-22
2023/07/06 01:04:28;;;;;;;5.22;2.38;;;;;;;;;;5056115;28;20041;-22
2023/07/06 01:06:55;;;;;;;4.63;2.15;;;;;;;;;;5056526;28;20430;-22
2023/07/06 01:09:21;;;;;;;2.85;1.65;;;;;;;;;;5056218;28;20021;-21
2023/07/06 01:11:49;;;;;;;7.40;1.90;;;;;;;;;;5056055;28;20029;-22
2023/07/06 01:14:15;;;;;;;3.85;1.83;;;;;;;;;;5055825;28;20035;-22
2023/07/06 01:16:53;;;;;;;3.42;1.83;;;;;;;;;;5055395;28;20399;-23
2023/07/06 01:19:31;;;;;;;3.17;2.22;;;;;;;;;;5055754;28;20464;-21
2023/07/06 01:22:05;;;;;;;5.25;2.20;;;;;;;;;;5055664;28;20035;-21
2023/07/06 01:24:34;;;;;;;5.57;2.35;;;;;;;;;;5055967;28;20031;-23
2023/07/06 01:27:00;;;;;;;6.22;1.92;;;;;;;;;;5055901;28;20025;-22
2023/07/06 01:29:50;;;;;;;3.40;1.70;;;;;;;;;;5055851;28;20040;-23
2023/07/06 01:32:18;;;;;;;4.43;2.22;;;;;;;;;;5027805;28;20436;-22
2023/07/06 01:34:48;;;;;;;3.15;1.98;;;;;;;;;;5055729;28;20033;-22
2023/07/06 01:37:18;;;;;;;4.70;2.00;;;;;;;;;;5037837;28;20021;-23
2023/07/06 01:39:45;;;;;;;4.18;2.88;;;;;;;;;;5055609;28;20360;-22
2023/07/06 01:42:12;;;;;;;3.30;1.70;;;;;;;;;;5055264;28;20459;-22
2023/07/06 01:44:40;;;;;;;3.22;1.65;;;;;;;;;;5055552;28;20044;-24
2023/07/06 01:47:06;;;;;;;4.55;1.90;;;;;;;;;;5055503;28;20029;-22
2023/07/06 01:49:36;;;;;;;3.65;1.88;;;;;;;;;;5055185;28;20105;-23
2023/07/06 01:52:03;;;;;;;3.38;1.80;;;;;;;;;;5055059;28;20040;-23
2023/07/06 01:54:35;;;;;;;8.52;2.50;;;;;;;;;;5055352;28;20359;-22
2023/07/06 01:57:05;;;;;;;3.10;1.83;;;;;;;;;;5055299;28;20044;-23
2023/07/06 01:59:34;;;;;;;2.83;1.92;;;;;;;;;;5055057;28;20029;-25
2023/07/06 02:02:01;;;;;;;5.95;1.55;;;;;;;;;;5055180;28;20028;-22
2023/07/06 02:04:31;;;;;;;5.18;1.83;;;;;;;;;;5054711;28;20045;-22
2023/07/06 02:07:02;;;;;;;6.88;1.92;;;;;;;;;;5055191;28;20029;-23
2023/07/06 02:09:28;;;;;;;5.28;2.20;;;;;;;;;;5055121;28;20475;-22
2023/07/06 02:11:54;;;;;;;2.88;1.75;;;;;;;;;;5055023;28;20104;-21
2023/07/06 02:14:21;;;;;;;4.20;2.00;;;;;;;;;;5054759;28;20364;-21
2023/07/06 02:16:50;;;;;;;4.88;1.77;;;;;;;;;;5054910;28;20112;-21
2023/07/06 02:19:18;;;;;;;4.72;2.00;;;;;;;;;;5055523;28;20411;-23
2023/07/06 02:21:44;;;;;;;4.82;1.70;;;;;;;;;;5054680;28;20029;-23
2023/07/06 02:24:10;;;;;;;2.78;1.83;;;;;;;;;;5054603;28;20023;-22
2023/07/06 02:26:36;;;;;;;3.00;1.38;;;;;;;;;;5054275;28;20046;-23
2023/07/06 02:29:03;;;;;;;2.05;1.60;;;;;;;;;;5054814;28;20090;-23
2023/07/06 02:31:29;;;;;;;2.65;1.95;;;;;;;;;;5054859;28;20091;-22
2023/07/06 02:33:55;;;;;;;1.83;1.50;;;;;;;;;;5054757;28;20040;-26
2023/07/06 02:36:21;;;;;;;5.85;2.33;;;;;;;;;;5054387;28;20060;-24
2023/07/06 02:38:48;;;;;;;4.18;2.13;;;;;;;;;;5054759;28;20063;-23
2023/07/06 02:41:14;;;;;;;6.38;1.73;;;;;;;;;;5054501;28;20032;-22
2023/07/06 02:43:41;;;;;;;2.35;1.70;;;;;;;;;;5054356;28;20017;-23
2023/07/06 02:46:07;;;;;;;2.80;1.55;;;;;;;;;;5054724;28;20013;-22
2023/07/06 02:48:34;;;;;;;1.58;1.48;;;;;;;;;;5054390;28;20054;-23
2023/07/06 02:51:01;;;;;;;2.90;1.98;;;;;;;;;;5054364;28;20028;-23
2023/07/06 02:53:27;;;;;;;2.85;1.92;;;;;;;;;;5054507;28;20091;-21
2023/07/06 02:55:53;;;;;;;3.08;2.17;;;;;;;;;;5054565;28;20025;-22
2023/07/06 02:58:20;;;;;;;5.85;1.88;;;;;;;;;;5054237;28;20043;-22
2023/07/06 03:00:50;;;;;;;3.35;1.52;;;;;;;;;;5036800;28;20470;-24
2023/07/06 03:03:16;;;;;;;3.15;1.70;;;;;;;;;;5054237;28;20037;-21
2023/07/06 03:05:46;;;;;;;2.80;1.83;;;;;;;;;;5054518;28;20029;-22
2023/07/06 03:08:12;;;;;;;3.92;2.63;;;;;;;;;;5054227;28;20032;-22
2023/07/06 03:10:38;;;;;;;4.82;1.83;;;;;;;;;;5054441;28;20029;-23
2023/07/06 03:13:06;;;;;;;6.35;3.45;;;;;;;;;;5054178;28;20028;-23
2023/07/06 03:15:32;;;;;;;2.25;1.70;;;;;;;;;;5054110;28;20101;-23
2023/07/06 03:17:58;;;;;;;4.35;1.92;;;;;;;;;;5054328;28;20036;-21
2023/07/06 03:20:24;;;;;;;2.00;1.75;;;;;;;;;;5054654;28;20072;-22
2023/07/06 03:22:52;;;;;;;2.22;1.60;;;;;;;;;;5054044;28;20464;-23
2023/07/06 03:25:19;;;;;;;4.50;1.73;;;;;;;;;;5036524;28;20028;-24
2023/07/06 03:27:48;;;;;;;2.67;1.42;;;;;;;;;;5054046;28;20021;-24
2023/07/06 03:30:16;;;;;;;4.13;1.63;;;;;;;;;;5054016;28;20028;-22
2023/07/06 03:32:42;;;;;;;2.20;1.30;;;;;;;;;;5053854;28;20104;-22
2023/07/06 03:35:09;;;;;;;3.10;1.42;;;;;;;;;;5053909;28;20029;-23
2023/07/06 03:37:39;;;;;;;2.72;2.00;;;;;;;;;;5054105;28;20048;-24
2023/07/06 03:40:10;;;;;;;4.57;1.60;;;;;;;;;;5057172;28;20028;-21
2023/07/06 03:42:38;;;;;;;2.05;1.58;;;;;;;;;;5058309;28;20040;-22
2023/07/06 03:45:05;;;;;;;2.25;1.65;;;;;;;;;;5058081;28;20082;-23
2023/07/06 03:47:33;;;;;;;3.45;1.77;;;;;;;;;;5057515;28;20387;-22
2023/07/06 03:49:59;;;;;;;2.33;1.65;;;;;;;;;;5058142;28;20356;-22
2023/07/06 03:52:27;;;;;;;3.53;1.60;;;;;;;;;;5057315;28;20045;-22
2023/07/06 03:54:54;;;;;;;7.13;1.98;;;;;;;;;;5057575;28;20109;-24
2023/07/06 03:57:20;;;;;;;2.53;1.52;;;;;;;;;;5057444;28;20029;-23
2023/07/06 03:59:46;;;;;;;2.20;1.33;;;;;;;;;;5057224;28;20059;-22
2023/07/06 04:02:12;;;;;;;9.45;2.75;;;;;;;;;;5057049;28;20390;-22
2023/07/06 04:04:39;;;;;;;2.53;1.77;;;;;;;;;;5056926;28;20041;-22
2023/07/06 04:07:07;;;;;;;1.55;1.42;;;;;;;;;;5057398;28;20037;-21
2023/07/06 04:09:36;;;;;;;2.38;1.40;;;;;;;;;;5057034;28;20017;-22
2023/07/06 04:12:02;;;;;;;2.63;1.40;;;;;;;;;;5056892;28;20040;-23
2023/07/06 04:14:29;;;;;;;2.10;1.40;;;;;;;;;;5056947;28;20086;-23
2023/07/06 04:16:56;;;;;;;4.05;1.80;;;;;;;;;;5056708;28;20125;-22
2023/07/06 04:19:25;;;;;;;3.28;1.48;;;;;;;;;;5056742;28;20466;-23
2023/07/06 04:21:52;;;;;;;4.45;1.52;;;;;;;;;;5056791;28;20021;-30
2023/07/06 04:24:18;;;;;;;2.63;1.80;;;;;;;;;;5057171;28;20024;-22
2023/07/06 04:26:47;;;;;;;2.72;1.58;;;;;;;;;;5038870;28;20087;-22
2023/07/06 04:29:14;;;;;;;3.65;2.20;;;;;;;;;;5039652;28;20028;-22
2023/07/06 04:31:41;;;;;;;2.92;1.52;;;;;;;;;;5056179;28;20483;-23
2023/07/06 04:34:07;;;;;;;2.60;1.48;;;;;;;;;;5056011;28;20071;-22
2023/07/06 04:36:33;;;;;;;2.08;1.88;;;;;;;;;;5056209;28;20407;-23
2023/07/06 04:39:00;;;;;;;4.13;2.35;;;;;;;;;;5055937;28;20025;-22
2023/07/06 04:41:26;;;;;;;2.38;1.58;;;;;;;;;;5056264;28;20321;-24
2023/07/06 04:43:53;;;;;;;2.47;1.33;;;;;;;;;;5056061;28;20444;-22
2023/07/06 04:46:22;;;;;;;2.35;1.55;;;;;;;;;;5038773;28;20368;-21
2023/07/06 04:48:49;;;;;;;2.35;1.30;;;;;;;;;;5038464;28;20056;-23
2023/07/06 04:51:17;;;;;;;1.85;1.40;;;;;;;;;;5055263;28;20025;-22
2023/07/06 04:53:43;;;;;;;4.20;2.03;;;;;;;;;;5038471;28;20415;-23
2023/07/06 04:56:09;;;;;;;2.85;1.90;;;;;;;;;;5055835;28;20024;-25
2023/07/06 04:58:36;;;;;;;5.35;2.03;;;;;;;;;;5055749;28;20356;-23
2023/07/06 05:01:07;;;;;;;3.28;1.88;;;;;;;;;;5055730;28;20028;-23
2023/07/06 05:03:34;;;;;;;4.05;2.38;;;;;;;;;;5055292;28;20056;-22
2023/07/06 05:06:05;;;;;;;4.65;1.90;;;;;;;;;;5055723;28;20025;-24
2023/07/06 05:08:32;;;;;;;2.60;1.67;;;;;;;;;;5055477;28;20120;-22
2023/07/06 05:10:58;;;;;;;3.72;1.50;;;;;;;;;;5055411;28;20025;-22
2023/07/06 05:13:24;;;;;;;4.95;1.65;;;;;;;;;;5055578;28;20383;-21
2023/07/06 05:15:52;;;;;;;2.45;1.60;;;;;;;;;;5055671;28;20083;-22
2023/07/06 05:18:19;;;;;;;6.57;3.40;;;;;;;;;;5055804;28;20552;-23
2023/07/06 05:20:48;;;;;;;3.05;1.85;;;;;;;;;;5055333;28;20039;-22
2023/07/06 05:23:15;;;;;;;2.28;1.73;;;;;;;;;;5055050;28;20471;-24
2023/07/06 05:25:41;;;;;;;5.90;1.60;;;;;;;;;;5055356;28;20033;-23
2023/07/06 05:28:10;;;;;;;6.28;1.52;;;;;;;;;;5055443;28;20333;-22
2023/07/06 05:30:37;;;;;;;6.53;1.90;;;;;;;;;;5055362;28;20055;-23
2023/07/06 05:33:04;;;;;;;3.22;1.88;;;;;;;;;;5054919;28;20048;-22
2023/07/06 05:35:30;;;;;;;4.53;2.03;;;;;;;;;;5054979;28;20032;-21
2023/07/06 05:37:56;;;;;;;2.13;1.50;;;;;;;;;;5054964;28;20440;-22
2023/07/06 05:40:22;;;;;;;2.42;1.77;;;;;;;;;;5055323;28;20329;-22
2023/07/06 05:42:48;;;;;;;1.70;1.60;;;;;;;;;;5054888;28;20035;-23
2023/07/06 05:45:14;;;;;;;5.28;2.55;;;;;;;;;;5054912;28;20036;-24
2023/07/06 05:47:40;;;;;;;2.63;1.63;;;;;;;;;;5054913;28;20051;-23
2023/07/06 05:50:07;;;;;;;3.53;1.50;;;;;;;;;;5055076;28;20055;-23
2023/07/06 05:52:33;;;;;;;3.05;1.58;;;;;;;;;;5054705;28;20448;-22
2023/07/06 05:54:59;;;;;;;3.10;1.40;;;;;;;;;;5054901;28;20040;-22
2023/07/06 05:57:26;;;;;;;4.63;1.50;;;;;;;;;;5054475;28;20033;-22
2023/07/06 05:59:53;;;;;;;7.88;1.50;;;;;;;;;;5054492;28;20048;-22
2023/07/06 06:02:21;;;;;;;1.50;1.40;;;;;;;;;;5481311;22;20343;-22
2023/07/06 06:04:48;;;;;;;13.77;3.60;;;;;;;;;;5074555;28;20032;-21
2023/07/06 06:07:15;;;;;;;7.05;1.92;;;;;;;;;;5074791;28;20043;-23
2023/07/06 06:09:41;;;;;;;2.17;1.48;;;;;;;;;;5074580;28;20013;-23
2023/07/06 06:12:07;;;;;;;5.00;1.85;;;;;;;;;;5074652;28;20025;-23
2023/07/06 06:14:34;;;;;;;2.47;1.42;;;;;;;;;;5074201;28;20174;-25
2023/07/06 06:17:00;;;;;;;2.95;2.05;;;;;;;;;;5074429;28;20455;-23
2023/07/06 06:19:27;;;;;;;3.40;1.85;;;;;;;;;;5074124;28;20036;-22
2023/07/06 06:21:54;;;;;;;6.00;1.70;;;;;;;;;;5074410;28;20028;-25
2023/07/06 06:24:21;;;;;;;4.20;2.08;;;;;;;;;;5074254;28;20024;-23
2023/07/06 06:26:47;;;;;;;5.47;1.55;;;;;;;;;;5074261;28;20097;-25
2023/07/06 06:29:13;;;;;;;3.50;1.73;;;;;;;;;;5074716;28;20054;-22
2023/07/06 06:31:42;;;;;;;3.53;1.58;;;;;;;;;;5074263;28;20034;-23
2023/07/06 06:34:09;;;;;;;2.55;1.73;;;;;;;;;;5074413;28;20094;-24
2023/07/06 06:36:36;;;;;;;4.20;2.22;;;;;;;;;;5073934;28;20179;-22
2023/07/06 06:39:02;;;;;;;10.73;2.33;;;;;;;;;;5074085;28;20013;-23
2023/07/06 06:41:28;;;;;;;10.48;2.00;;;;;;;;;;5074273;28;20017;-22
2023/07/06 06:43:56;;;;;;;10.15;2.72;;;;;;;;;;5074079;28;20031;-23
2023/07/06 06:46:23;;;;;;;7.32;1.98;;;;;;;;;;5074263;28;20451;-23
2023/07/06 06:48:50;;;;;;;13.05;3.75;;;;;;;;;;5074172;28;20029;-24
2023/07/06 06:51:16;;;;;;;9.20;2.20;;;;;;;;;;5074223;28;20371;-22
2023/07/06 06:53:43;;;;;;;3.97;1.80;;;;;;;;;;5074148;28;20120;-24
2023/07/06 06:56:09;;;;;;;2.33;1.75;;;;;;;;;;5074222;28;20024;-23
2023/07/06 06:58:36;;;;;;;3.33;2.33;;;;;;;;;;5074400;28;20035;-22
2023/07/06 07:01:03;;;;;;;3.28;2.22;;;;;;;;;;5074186;28;20036;-23
2023/07/06 07:03:30;;;;;;;4.90;2.10;;;;;;;;;;5052886;28;20468;-21
2023/07/06 07:06:12;;;;;;;5.82;2.20;;;;;;;;;;5054444;28;20419;-22
2023/07/06 07:08:47;;;;;;;3.13;1.90;;;;;;;;;;5054333;28;20025;-23
2023/07/06 07:11:14;;;;;;;8.07;1.95;;;;;;;;;;5054002;28;20037;-23
2023/07/06 07:13:40;;;;;;;2.67;1.75;;;;;;;;;;5055430;28;20061;-22
2023/07/06 07:16:07;;;;;;;3.75;1.60;;;;;;;;;;5057931;28;20028;-23
2023/07/06 07:18:34;;;;;;;3.53;1.85;;;;;;;;;;5058161;28;20390;-21
2023/07/06 07:21:04;;;;;;;3.75;1.85;;;;;;;;;;5056940;28;20098;-23
2023/07/06 07:23:34;;;;;;;2.58;1.73;;;;;;;;;;5057987;28;20025;-23
2023/07/06 07:26:02;;;;;;;7.65;1.98;;;;;;;;;;5058051;28;20029;-24
2023/07/06 07:28:31;;;;;;;2.17;1.77;;;;;;;;;;5058196;28;20143;-23
2023/07/06 07:30:57;;;;;;;3.92;1.83;;;;;;;;;;5057510;28;20440;-23
2023/07/06 07:33:24;;;;;;;3.20;1.73;;;;;;;;;;5057397;28;20364;-23
2023/07/06 07:35:54;;;;;;;9.40;2.40;;;;;;;;;;5057978;28;20114;-22
2023/07/06 07:38:23;;;;;;;5.43;2.15;;;;;;;;;;5057109;28;20036;-21
2023/07/06 07:40:56;;;;;;;6.03;2.15;;;;;;;;;;5057880;28;20487;-24
2023/07/06 07:43:32;;;;;;;5.63;2.40;;;;;;;;;;5057233;28;20029;-22
2023/07/06 07:46:05;;;;;;;6.80;2.20;;;;;;;;;;5057540;28;20013;-22
2023/07/06 07:48:33;;;;;;;5.32;2.78;;;;;;;;;;5057274;28;20025;-23
2023/07/06 07:51:02;;;;;;;11.50;2.78;;;;;;;;;;5057751;28;20025;-25
2023/07/06 07:53:30;;;;;;;4.90;2.15;;;;;;;;;;5056818;28;20127;-29
2023/07/06 07:55:56;;;;;;;5.45;1.67;;;;;;;;;;5057291;28;20025;-23
2023/07/06 07:58:23;;;;;;;5.22;2.15;;;;;;;;;;5056908;28;20017;-24
2023/07/06 08:00:55;;;;;;;5.35;1.90;;;;;;;;;;5057323;28;20082;-23
2023/07/06 08:03:22;;;;;;;3.22;1.38;;;;;;;;;;5067703;28;20056;-23
2023/07/06 08:05:48;;;;;;;5.85;2.13;;;;;;;;;;5077151;28;20025;-22
2023/07/06 08:08:14;;;;;;;6.63;2.13;;;;;;;;;;5077197;28;20390;-23
2023/07/06 08:10:41;;;;;;;4.13;1.95;;;;;;;;;;5077236;28;20025;-23
2023/07/06 08:13:09;;;;;;;6.13;2.00;;;;;;;;;;5058954;28;20020;-22
2023/07/06 08:15:38;;;;;;;7.43;2.78;;;;;;;;;;5076668;28;20029;-22
2023/07/06 08:18:06;;;;;;;4.88;1.85;;;;;;;;;;5076450;28;20409;-21
2023/07/06 08:20:33;;;;;;;9.82;2.95;;;;;;;;;;5076557;28;20033;-22
2023/07/06 08:23:01;;;;;;;3.80;2.08;;;;;;;;;;5058817;28;20499;-22
2023/07/06 08:25:28;;;;;;;4.05;1.60;;;;;;;;;;5076548;28;20025;-22
2023/07/06 08:27:57;;;;;;;6.65;2.30;;;;;;;;;;5058675;28;20038;-23
2023/07/06 08:30:24;;;;;;;3.80;2.05;;;;;;;;;;5076390;28;20036;-24
2023/07/06 08:32:50;;;;;;;7.15;2.20;;;;;;;;;;5076330;28;20325;-22
2023/07/06 08:35:19;;;;;;;7.22;2.22;;;;;;;;;;5076084;28;20024;-23
2023/07/06 08:37:46;;;;;;;3.40;2.20;;;;;;;;;;5075867;28;20111;-23
2023/07/06 08:40:14;;;;;;;3.70;2.30;;;;;;;;;;5075962;28;20370;-23
2023/07/06 08:42:45;;;;;;;5.40;2.10;;;;;;;;;;5075938;28;20016;-23
2023/07/06 08:45:11;;;;;;;;;;;;;;;;;;5076787;28;20032;-22
2023/07/06 08:47:39;;;;;;;5.55;1.92;;;;;;;;;;5076102;28;20344;-23
2023/07/06 08:50:08;;;;;;;10.60;2.72;;;;;;;;;;5058697;28;20548;-23
2023/07/06 08:52:34;;;;;;;3.97;2.08;;;;;;;;;;5075979;28;20406;-23
2023/07/06 08:55:01;;;;;;;5.80;2.20;;;;;;;;;;5075987;28;20047;-23
2023/07/06 08:57:30;;;;;;;5.63;1.98;;;;;;;;;;5076087;28;20058;-23
2023/07/06 08:59:57;;;;;;;3.05;1.98;;;;;;;;;;5076097;28;20085;-22
2023/07/06 09:02:25;;;;;;;5.50;2.20;;;;;;;;;;5075628;28;20037;-24
2023/07/06 09:04:52;;;;;;;5.00;2.40;;;;;;;;;;5075759;28;20451;-24
2023/07/06 09:07:19;;;;;;;5.57;2.30;;;;;;;;;;5075837;28;20055;-22
2023/07/06 09:09:46;;;;;;;4.25;2.47;;;;;;;;;;5075633;28;20092;-24
2023/07/06 09:12:15;;;;;;;3.25;2.33;;;;;;;;;;5075502;28;20490;-23
2023/07/06 09:14:41;;;;;;;8.90;2.10;;;;;;;;;;5057970;28;20112;-23
2023/07/06 09:17:09;;;;;;;3.72;1.85;;;;;;;;;;5075457;28;20024;-21
2023/07/06 09:19:38;;;;;;;8.27;2.38;;;;;;;;;;5075452;28;20021;-21
2023/07/06 09:22:05;;;;;;;7.57;2.20;;;;;;;;;;5057726;28;20351;-22
2023/07/06 09:24:34;;;;;;;6.20;2.25;;;;;;;;;;5075844;28;20020;-22
2023/07/06 09:27:08;;;;;;;4.55;1.95;;;;;;;;;;5057531;28;20516;-23
2023/07/06 09:29:37;;;;;;;3.92;2.20;;;;;;;;;;5075153;28;20033;-21
2023/07/06 09:32:20;;;;;;;6.95;3.50;;;;;;;;;;5074931;28;20089;-23
2023/07/06 09:34:50;;;;;;;6.35;2.15;;;;;;;;;;5075202;28;20351;-22
2023/07/06 09:37:17;;;;;;;6.25;2.20;;;;;;;;;;5074440;28;20094;-23
2023/07/06 09:39:57;;;;;;;7.65;2.85;;;;;;;;;;5074637;28;20081;-24
2023/07/06 09:42:23;;;;;;;7.45;2.30;;;;;;;;;;5074883;28;20024;-24
2023/07/06 09:44:51;;;;;;;16.05;2.10;;;;;;;;;;5074905;28;20478;-22
2023/07/06 09:47:17;;;;;;;7.75;2.42;;;;;;;;;;5074886;28;20024;-22
2023/07/06 09:49:48;;;;;;;6.07;2.78;;;;;;;;;;5074889;28;20161;-23
2023/07/06 09:52:15;;;;;;;6.45;2.35;;;;;;;;;;5074716;28;20037;-23
2023/07/06 09:54:46;;;;;;;7.07;2.85;;;;;;;;;;5074934;28;20035;-23
2023/07/06 09:57:13;;;;;;;;;;;;;;;;;;5075184;28;20024;-23
2023/07/06 09:59:49;;;;;;;5.53;2.15;;;;;;;;;;5074748;28;20291;-24
2023/07/06 10:02:23;;;;;;;7.95;2.95;;;;;;;;;;5056872;28;20024;-23
2023/07/06 10:04:52;;;;;;;7.32;2.47;;;;;;;;;;5075330;28;20446;-23
2023/07/06 10:07:40;;;;;;;4.65;2.58;;;;;;;;;;5074859;28;20036;-23
2023/07/06 10:10:09;;;;;;;14.18;3.28;;;;;;;;;;5074875;28;20024;-21
2023/07/06 10:12:44;;;;;;;7.18;3.22;;;;;;;;;;5075000;28;20028;-22
2023/07/06 10:15:19;;;;;;;8.50;2.75;;;;;;;;;;5074882;28;20097;-23
2023/07/06 10:17:48;;;;;;;9.35;2.95;;;;;;;;;;5074583;28;20029;-24
2023/07/06 10:20:17;;;;;;;15.48;3.70;;;;;;;;;;5074436;28;20020;-23
2023/07/06 10:22:47;;;;;;;13.82;3.45;;;;;;;;;;5074709;28;20044;-23
2023/07/06 10:25:34;;;;;;;10.68;2.88;;;;;;;;;;5073903;28;20029;-24
2023/07/06 10:28:18;;;;;;;13.43;2.83;;;;;;;;;;5074102;28;20020;-24
2023/07/06 10:30:47;;;;;;;11.20;3.63;;;;;;;;;;5073799;28;20393;-23
2023/07/06 10:33:33;;;;;;;11.50;2.50;;;;;;;;;;5073967;28;20059;-23
2023/07/06 10:36:00;;;;;;;10.88;2.88;;;;;;;;;;5073629;28;20052;-23
2023/07/06 10:38:26;;;;;;;12.32;2.80;;;;;;;;;;5073767;28;20025;-23
2023/07/06 10:41:12;;;;;;;9.15;2.65;;;;;;;;;;5073848;28;20362;-24
2023/07/06 10:43:43;;;;;;;16.67;3.30;;;;;;;;;;5073917;28;20032;-24
2023/07/06 10:46:27;;;;;;;18.67;3.05;;;;;;;;;;5056435;28;20035;-23
2023/07/06 10:49:00;;;;;;;19.15;3.95;;;;;;;;;;5075628;28;20056;-22
2023/07/06 10:51:27;;;;;;;15.65;4.55;;;;;;;;;;5078110;28;20021;-23
2023/07/06 10:54:16;;;;;;;14.20;3.88;;;;;;;;;;5060176;28;20079;-23
2023/07/06 10:56:45;;;;;;;13.45;2.92;;;;;;;;;;5078138;28;20462;-21
2023/07/06 10:59:16;;;;;;;13.07;3.80;;;;;;;;;;5078231;28;20028;-23
2023/07/06 11:01:46;;;;;;;9.00;3.10;;;;;;;;;;5078146;28;20100;-23
2023/07/06 11:04:31;;;;;;;7.67;2.47;;;;;;;;;;5078670;28;20098;-22
2023/07/06 11:06:58;;;;;;;10.02;2.97;;;;;;;;;;5078072;28;20254;-24
2023/07/06 11:09:24;;;;;;;12.60;3.00;;;;;;;;;;5078038;28;20046;-23
2023/07/06 11:11:54;;;;;;;11.70;3.50;;;;;;;;;;5077938;28;20443;-23
2023/07/06 11:14:20;;;;;;;16.40;2.90;;;;;;;;;;5077999;28;20082;-21
2023/07/06 11:17:08;;;;;;;9.23;2.60;;;;;;;;;;5078075;28;20413;-22
2023/07/06 11:19:36;;;;;;;9.93;2.70;;;;;;;;;;5047738;28;20037;-22
2023/07/06 11:22:08;;;;;;;10.02;2.78;;;;;;;;;;5077702;28;20059;-23
2023/07/06 11:24:39;;;;;;;9.18;2.50;;;;;;;;;;5077878;28;20071;-23
2023/07/06 11:27:11;;;;;;;9.57;2.75;;;;;;;;;;5077962;28;20024;-22
2023/07/06 11:29:38;;;;;;;8.63;2.78;;;;;;;;;;5077798;28;20024;-23
2023/07/06 11:32:24;;;;;;;16.90;3.50;;;;;;;;;;5077231;28;20107;-23
2023/07/06 11:35:07;;;;;;;12.40;3.22;;;;;;;;;;5059618;28;20040;-22
2023/07/06 11:37:56;;;;;;;8.43;3.60;;;;;;;;;;5077371;28;20067;-22
2023/07/06 11:40:22;;;;;;;16.80;2.70;;;;;;;;;;5049244;28;20104;-23
2023/07/06 11:43:08;;;;;;;8.63;2.85;;;;;;;;;;5077440;28;20020;-23
2023/07/06 11:45:49;;;;;;;8.52;2.70;;;;;;;;;;5077231;28;20102;-22
2023/07/06 11:48:15;;;;;;;12.52;2.33;;;;;;;;;;5076811;28;20090;-22
2023/07/06 11:50:42;;;;;;;9.65;3.00;;;;;;;;;;5076909;28;20077;-21
2023/07/06 11:53:29;;;;;;;14.00;3.55;;;;;;;;;;5076842;28;20035;-22
2023/07/06 11:56:05;;;;;;;19.05;2.78;;;;;;;;;;5076836;28;20028;-22
2023/07/06 11:58:43;;;;;;;11.93;3.45;;;;;;;;;;5076903;28;20028;-24
2023/07/06 12:01:20;;;;;;;10.25;3.03;;;;;;;;;;5076184;28;20040;-23
2023/07/06 12:03:47;;;;;;;11.68;2.75;;;;;;;;;;5076239;28;20049;-22
2023/07/06 12:06:19;;;;;;;16.13;3.70;;;;;;;;;;5077309;28;20028;-22
2023/07/06 12:08:45;;;;;;;10.35;2.40;;;;;;;;;;5076735;28;20052;-22
2023/07/06 12:11:19;;;;;;;8.35;2.90;;;;;;;;;;5077087;28;20090;-23
2023/07/06 12:13:47;;;;;;;8.88;2.55;;;;;;;;;;5076580;28;20149;-24
2023/07/06 12:16:19;;;;;;;8.32;2.72;;;;;;;;;;5076600;28;20028;-23
2023/07/06 12:18:46;;;;;;;17.25;7.43;;;;;;;;;;5076667;28;20455;-23
2023/07/06 12:21:27;;;;;;;12.73;3.30;;;;;;;;;;5076782;28;20076;-22
2023/07/06 12:23:55;;;;;;;;;;;;;;;;;;5076827;28;20082;-22
2023/07/06 12:26:21;;;;;;;10.23;2.83;;;;;;;;;;5076798;28;19904;-23
2023/07/06 12:28:47;;;;;;;14.27;3.90;;;;;;;;;;5076817;28;20032;-23
2023/07/06 12:31:15;;;;;;;10.57;2.95;;;;;;;;;;5076418;28;20107;-22
2023/07/06 12:33:43;;;;;;;19.17;3.20;;;;;;;;;;5076403;28;20056;-23
2023/07/06 12:36:13;;;;;;;19.35;4.68;;;;;;;;;;5076515;28;20032;-22
2023/07/06 12:38:39;;;;;;;17.40;3.97;;;;;;;;;;5076642;28;20048;-24
2023/07/06 12:41:18;;;;;;;11.10;3.30;;;;;;;;;;5076962;28;20029;-22
2023/07/06 12:43:45;;;;;;;24.05;3.50;;;;;;;;;;5058653;28;20394;-22
2023/07/06 12:46:12;;;;;;;19.98;4.10;;;;;;;;;;5076754;28;20351;-24
2023/07/06 12:48:42;;;;;;;21.95;4.80;;;;;;;;;;5076320;28;20028;-22
2023/07/06 12:51:11;;;;;;;14.45;4.07;;;;;;;;;;5076136;28;20026;-23
2023/07/06 12:53:38;;;;;;;19.50;4.85;;;;;;;;;;5076257;28;20032;-29
2023/07/06 12:56:14;;;;;;;16.10;3.00;;;;;;;;;;5058483;28;20040;-23
2023/07/06 12:58:44;;;;;;;6.78;2.65;;;;;;;;;;5076011;28;20024;-23
2023/07/06 13:01:10;;;;;;;10.48;3.63;;;;;;;;;;5076340;28;20029;-24
2023/07/06 13:03:56;;;;;;;17.27;3.83;;;;;;;;;;5075654;28;20045;-22
2023/07/06 13:06:26;;;;;;;9.77;3.30;;;;;;;;;;5076133;28;20024;-24
2023/07/06 13:08:56;;;;;;;17.50;2.88;;;;;;;;;;5076118;28;20024;-22
2023/07/06 13:11:23;;;;;;;13.82;3.63;;;;;;;;;;5075322;28;20032;-24
2023/07/06 13:13:50;;;;;;;9.13;2.60;;;;;;;;;;5075747;28;20043;-22
2023/07/06 13:16:17;;;;;;;7.47;2.80;;;;;;;;;;5075753;28;20078;-23
2023/07/06 13:18:45;;;;;;;8.60;4.13;;;;;;;;;;5075953;28;20036;-26
2023/07/06 13:21:14;;;;;;;11.32;3.40;;;;;;;;;;5075796;28;20021;-22
2023/07/06 13:23:41;;;;;;;9.93;3.58;;;;;;;;;;5075706;28;20052;-22
2023/07/06 13:26:07;;;;;;;12.60;2.78;;;;;;;;;;5075429;28;20100;-22
2023/07/06 13:28:35;;;;;;;9.05;2.22;;;;;;;;;;5075686;28;20099;-22
2023/07/06 13:31:02;;;;;;;11.25;2.67;;;;;;;;;;5057614;28;20411;-23
2023/07/06 13:33:29;;;;;;;14.80;3.88;;;;;;;;;;5075281;28;20520;-23
2023/07/06 13:35:55;;;;;;;13.10;4.15;;;;;;;;;;5075464;28;20406;-21
2023/07/06 13:38:22;;;;;;;7.65;3.03;;;;;;;;;;5075618;28;20402;-23
2023/07/06 13:40:48;;;;;;;18.05;3.80;;;;;;;;;;5075543;28;20044;-22
2023/07/06 13:43:16;;;;;;;23.10;3.65;;;;;;;;;;5075075;28;20025;-24
2023/07/06 13:45:43;;;;;;;6.53;3.08;;;;;;;;;;5075296;28;20054;-23
2023/07/06 13:48:11;;;;;;;15.85;3.42;;;;;;;;;;5076164;28;20047;-21
2023/07/06 13:50:39;;;;;;;17.40;3.20;;;;;;;;;;5075251;28;20021;-22
2023/07/06 13:53:07;;;;;;;12.55;3.22;;;;;;;;;;5074920;28;20047;-24
2023/07/06 13:55:38;;;;;;;10.13;3.30;;;;;;;;;;5075195;28;20036;-24
2023/07/06 13:58:06;;;;;;;9.32;2.78;;;;;;;;;;5076031;28;20049;-24
2023/07/06 14:00:33;;;;;;;5.53;2.60;;;;;;;;;;5074933;28;20363;-29
2023/07/06 14:02:59;;;;;;;9.07;2.50;;;;;;;;;;5074604;28;20036;-24
2023/07/06 14:05:26;;;;;;;9.23;2.58;;;;;;;;;;5075145;28;20035;-21
2023/07/06 14:07:52;;;;;;;8.45;2.88;;;;;;;;;;5057170;28;20506;-23
2023/07/06 14:10:19;;;;;;;9.70;2.90;;;;;;;;;;5074835;28;20063;-23
2023/07/06 14:12:47;;;;;;;8.93;2.40;;;;;;;;;;5074764;28;20043;-24
2023/07/06 14:15:14;;;;;;;11.05;4.07;;;;;;;;;;5074942;28;20498;-22
2023/07/06 14:17:42;;;;;;;9.60;3.13;;;;;;;;;;5074547;28;20089;-22
2023/07/06 14:20:09;;;;;;;11.02;2.85;;;;;;;;;;5074605;28;20025;-23
2023/07/06 14:22:35;;;;;;;13.93;3.00;;;;;;;;;;5074370;28;20067;-22
2023/07/06 14:25:02;;;;;;;8.63;3.05;;;;;;;;;;5074808;28;20107;-21
2023/07/06 14:27:29;;;;;;;15.30;3.50;;;;;;;;;;5074803;28;20020;-23
2023/07/06 14:29:56;;;;;;;12.52;2.65;;;;;;;;;;5074402;28;20052;-23
2023/07/06 14:32:22;;;;;;;18.75;4.40;;;;;;;;;;5074335;28;20025;-22
2023/07/06 14:34:48;;;;;;;19.38;3.22;;;;;;;;;;5074478;28;20367;-22
2023/07/06 14:37:15;;;;;;;17.48;3.13;;;;;;;;;;5074361;28;20121;-23
2023/07/06 14:39:41;;;;;;;15.38;3.33;;;;;;;;;;5074561;28;20115;-23
2023/07/06 14:42:08;;;;;;;20.02;3.97;;;;;;;;;;5074181;28;20035;-22
2023/07/06 14:44:37;;;;;;;10.48;3.17;;;;;;;;;;5074620;28;20398;-21
2023/07/06 14:47:04;;;;;;;10.13;3.47;;;;;;;;;;5074353;28;20039;-23
2023/07/06 14:49:30;;;;;;;12.93;2.80;;;;;;;;;;5074268;28;20447;-21
2023/07/06 14:51:56;;;;;;;11.95;2.88;;;;;;;;;;5074444;28;20028;-23